Bethlehem Airport


Codes: FABM/
Name: Bethlehem Airport
City: Bethlehem
Country: South Africa
Elevation: 5561 ft.

Photos at Bethlehem Airport


   Photos courtesy of SpottingLog. You can add your own sightings and photos by signing up for a free trial today.



No photos found.

Weather at Bethlehem Airport


Time (UTC)DescriptionTempratureWindCloud coverageVisibilityPressureHumidity
16-Jun-2024 12:00Clear Sky16°C4 mph, NW3%10000m1024hPa26%
16-Jun-2024 15:00Broken Clouds14°C4 mph, NW51%10000m1024hPa27%
16-Jun-2024 18:00Overcast Clouds10°C0 mph, NE86%10000m1025hPa30%
16-Jun-2024 21:00Broken Clouds8°C4 mph, E56%10000m1026hPa35%
17-Jun-2024 00:00Scattered Clouds6°C2 mph, NE31%10000m1026hPa41%
17-Jun-2024 03:00Clear Sky5°C2 mph, SE5%10000m1026hPa45%
17-Jun-2024 06:00Clear Sky7°C0 mph, W3%10000m1026hPa42%
17-Jun-2024 09:00Clear Sky15°C7 mph, NW2%10000m1024hPa28%
17-Jun-2024 12:00Clear Sky17°C9 mph, NW2%10000m1020hPa26%
17-Jun-2024 15:00Clear Sky13°C4 mph, NW0%10000m1020hPa37%
17-Jun-2024 18:00Clear Sky9°C2 mph, NW1%10000m1021hPa51%
17-Jun-2024 21:00Clear Sky7°C4 mph, W10%10000m1022hPa62%
18-Jun-2024 00:00Scattered Clouds9°C4 mph, W41%10000m1020hPa61%
18-Jun-2024 03:00Clear Sky6°C4 mph, SW0%10000m1020hPa74%
18-Jun-2024 06:00Clear Sky8°C7 mph, W0%10000m1021hPa66%
18-Jun-2024 09:00Clear Sky14°C13 mph, W0%10000m1020hPa43%
18-Jun-2024 12:00Clear Sky17°C16 mph, W0%10000m1017hPa27%
18-Jun-2024 15:00Clear Sky14°C9 mph, W0%10000m1018hPa31%
18-Jun-2024 18:00Clear Sky9°C7 mph, SW0%10000m1020hPa41%
18-Jun-2024 21:00Clear Sky8°C7 mph, SW0%10000m1021hPa43%
19-Jun-2024 00:00Clear Sky6°C4 mph, SW0%10000m1021hPa46%
19-Jun-2024 03:00Clear Sky5°C2 mph, SW0%10000m1021hPa47%
19-Jun-2024 06:00Clear Sky7°C4 mph, SW0%10000m1022hPa39%
19-Jun-2024 09:00Clear Sky16°C9 mph, W0%10000m1020hPa17%
19-Jun-2024 12:00Clear Sky18°C11 mph, W0%10000m1018hPa14%
19-Jun-2024 15:00Clear Sky13°C7 mph, W0%10000m1020hPa21%
19-Jun-2024 18:00Clear Sky9°C2 mph, SW0%10000m1023hPa28%
19-Jun-2024 21:00Clear Sky7°C4 mph, SE0%10000m1025hPa33%
20-Jun-2024 00:00Clear Sky5°C4 mph, E0%10000m1025hPa45%
20-Jun-2024 03:00Clear Sky4°C7 mph, E0%10000m1027hPa77%
20-Jun-2024 06:00Clear Sky5°C7 mph, E0%10000m1028hPa77%
20-Jun-2024 09:00Clear Sky15°C7 mph, NE0%10000m1025hPa28%
20-Jun-2024 12:00Clear Sky18°C9 mph, N0%10000m1021hPa15%
20-Jun-2024 15:00Clear Sky14°C4 mph, N0%10000m1022hPa22%
20-Jun-2024 18:00Clear Sky10°C2 mph, E0%10000m1024hPa28%
20-Jun-2024 21:00Clear Sky8°C4 mph, E1%10000m1026hPa32%
21-Jun-2024 00:00Clear Sky7°C4 mph, E3%10000m1026hPa39%
21-Jun-2024 03:00Clear Sky5°C4 mph, E2%10000m1028hPa53%
21-Jun-2024 06:00Clear Sky7°C4 mph, SE5%10000m1029hPa59%
21-Jun-2024 09:00Scattered Clouds15°C4 mph, N48%10000m1026hPa43%